sensor_id;sensor_type;location;lat;lon;timestamp;pressure;altitude;pressure_sealevel;temperature;humidity
51123;BME280;37162;41.724;13.346;2023-02-16T00:01:33;97972.13;;;16.06;55.17
51123;BME280;37162;41.724;13.346;2023-02-16T00:04:00;97949.81;;;15.99;55.17
51123;BME280;37162;41.724;13.346;2023-02-16T00:06:27;97959.75;;;16.05;55.02
51123;BME280;37162;41.724;13.346;2023-02-16T00:08:54;97957.25;;;16.04;54.96
51123;BME280;37162;41.724;13.346;2023-02-16T00:14:09;97954.78;;;16.02;55.07
51123;BME280;37162;41.724;13.346;2023-02-16T00:16:35;97953.97;;;16.02;55.20
51123;BME280;37162;41.724;13.346;2023-02-16T00:19:01;97949.81;;;15.99;55.17
51123;BME280;37162;41.724;13.346;2023-02-16T00:21:26;97953.13;;;16.01;55.43
51123;BME280;37162;41.724;13.346;2023-02-16T00:23:52;97950.66;;;16.00;55.43
51123;BME280;37162;41.724;13.346;2023-02-16T00:26:23;97953.50;;;15.98;55.36
51123;BME280;37162;41.724;13.346;2023-02-16T00:28:54;97950.84;;;15.98;55.28
51123;BME280;37162;41.724;13.346;2023-02-16T00:31:25;97964.25;;;15.98;55.23
51123;BME280;37162;41.724;13.346;2023-02-16T00:33:52;97964.25;;;15.98;55.50
51123;BME280;37162;41.724;13.346;2023-02-16T00:36:17;97958.06;;;15.98;55.32
51123;BME280;37162;41.724;13.346;2023-02-16T00:38:43;97965.88;;;15.99;55.60
51123;BME280;37162;41.724;13.346;2023-02-16T00:41:20;97965.06;;;15.99;55.87
51123;BME280;37162;41.724;13.346;2023-02-16T00:47:00;97966.75;;;16.00;55.86
51123;BME280;37162;41.724;13.346;2023-02-16T00:49:26;97969.41;;;16.00;55.51
51123;BME280;37162;41.724;13.346;2023-02-16T00:51:51;97972.28;;;15.98;55.41
51123;BME280;37162;41.724;13.346;2023-02-16T00:54:17;97962.22;;;16.00;55.00
51123;BME280;37162;41.724;13.346;2023-02-16T00:56:43;97967.56;;;16.00;54.96
51123;BME280;37162;41.724;13.346;2023-02-16T00:59:15;97965.25;;;15.97;54.90
51123;BME280;37162;41.724;13.346;2023-02-16T01:01:41;97962.97;;;15.94;54.86
51123;BME280;37162;41.724;13.346;2023-02-16T01:04:09;97972.09;;;16.00;54.73
51123;BME280;37162;41.724;13.346;2023-02-16T01:06:36;97974.78;;;16.00;54.86
51123;BME280;37162;41.724;13.346;2023-02-16T01:09:20;97972.09;;;16.00;54.82
51123;BME280;37162;41.724;13.346;2023-02-16T01:12:12;97966.75;;;16.00;54.89
51123;BME280;37162;41.724;13.346;2023-02-16T01:14:38;97971.25;;;15.99;54.76
51123;BME280;37162;41.724;13.346;2023-02-16T01:17:04;97973.09;;;15.99;54.74
51123;BME280;37162;41.724;13.346;2023-02-16T01:19:29;97963.41;;;15.98;54.73
51123;BME280;37162;41.724;13.346;2023-02-16T01:21:55;97968.78;;;15.98;54.75
51123;BME280;37162;41.724;13.346;2023-02-16T01:24:20;97965.06;;;15.99;54.81
51123;BME280;37162;41.724;13.346;2023-02-16T01:26:48;97963.41;;;15.98;54.81
51123;BME280;37162;41.724;13.346;2023-02-16T01:29:19;97963.41;;;15.98;54.75
51123;BME280;37162;41.724;13.346;2023-02-16T01:31:45;97962.59;;;15.97;54.86
51123;BME280;37162;41.724;13.346;2023-02-16T01:34:11;97948.13;;;15.92;55.04
51123;BME280;37162;41.724;13.346;2023-02-16T01:42:02;97946.66;;;15.89;55.16
51123;BME280;37162;41.724;13.346;2023-02-16T01:45:03;97951.03;;;15.97;55.34
51123;BME280;37162;41.724;13.346;2023-02-16T01:47:35;97945.88;;;15.95;55.54
51123;BME280;37162;41.724;13.346;2023-02-16T01:50:18;97948.56;;;15.95;55.37
51123;BME280;37162;41.724;13.346;2023-02-16T01:53:08;97946.88;;;15.94;55.06
51123;BME280;37162;41.724;13.346;2023-02-16T01:55:43;97943.22;;;15.95;55.08
51123;BME280;37162;41.724;13.346;2023-02-16T01:58:20;97942.56;;;15.93;54.91
51123;BME280;37162;41.724;13.346;2023-02-16T02:06:01;97935.56;;;15.92;54.84
51123;BME280;37162;41.724;13.346;2023-02-16T02:08:41;97929.38;;;15.92;54.85
51123;BME280;37162;41.724;13.346;2023-02-16T02:13:51;97925.88;;;15.91;54.84
51123;BME280;37162;41.724;13.346;2023-02-16T02:16:21;97924.19;;;15.90;55.00
51123;BME280;37162;41.724;13.346;2023-02-16T02:18:48;97923.38;;;15.90;54.90
51123;BME280;37162;41.724;13.346;2023-02-16T02:27:27;97911.19;;;15.87;55.11
51123;BME280;37162;41.724;13.346;2023-02-16T02:30:23;97912.03;;;15.88;55.25
51123;BME280;37162;41.724;13.346;2023-02-16T02:39:08;97908.72;;;15.86;55.26
51123;BME280;37162;41.724;13.346;2023-02-16T02:44:22;97901.50;;;15.86;55.32
51123;BME280;37162;41.724;13.346;2023-02-16T02:46:48;97902.94;;;15.89;55.92
51123;BME280;37162;41.724;13.346;2023-02-16T02:49:14;97900.88;;;15.84;55.50
51123;BME280;37162;41.724;13.346;2023-02-16T02:51:40;97906.47;;;15.89;55.71
51123;BME280;37162;41.724;13.346;2023-02-16T02:57:41;97904.59;;;15.90;55.36
51123;BME280;37162;41.724;13.346;2023-02-16T03:00:26;97903.78;;;15.89;55.20
51123;BME280;37162;41.724;13.346;2023-02-16T03:05:37;97903.78;;;15.89;54.92
51123;BME280;37162;41.724;13.346;2023-02-16T03:08:10;97908.09;;;15.90;54.88
51123;BME280;37162;41.724;13.346;2023-02-16T03:10:44;97910.78;;;15.90;54.93
51123;BME280;37162;41.724;13.346;2023-02-16T03:13:42;97911.00;;;15.89;54.85
51123;BME280;37162;41.724;13.346;2023-02-16T03:16:57;97918.00;;;15.90;54.80
51123;BME280;37162;41.724;13.346;2023-02-16T03:18:57;97925.22;;;15.89;54.94
51123;BME280;37162;41.724;13.346;2023-02-16T03:21:42;97920.06;;;15.88;54.89
51123;BME280;37162;41.724;13.346;2023-02-16T03:24:29;97923.56;;;15.88;54.90
51123;BME280;37162;41.724;13.346;2023-02-16T03:27:21;97930.78;;;15.88;54.75
51123;BME280;37162;41.724;13.346;2023-02-16T03:30:09;97928.09;;;15.88;54.82
51123;BME280;37162;41.724;13.346;2023-02-16T03:32:36;97915.06;;;15.78;54.75
51123;BME280;37162;41.724;13.346;2023-02-16T03:35:02;97930.16;;;15.86;54.63
51123;BME280;37162;41.724;13.346;2023-02-16T03:37:27;97928.31;;;15.86;54.81
51123;BME280;37162;41.724;13.346;2023-02-16T03:39:53;97935.53;;;15.86;54.43
51123;BME280;37162;41.724;13.346;2023-02-16T03:42:37;97938.22;;;15.86;54.62
51123;BME280;37162;41.724;13.346;2023-02-16T03:45:03;97937.34;;;15.85;54.63
51123;BME280;37162;41.724;13.346;2023-02-16T03:47:28;97940.03;;;15.85;54.51
51123;BME280;37162;41.724;13.346;2023-02-16T03:49:54;97945.38;;;15.85;54.73
51123;BME280;37162;41.724;13.346;2023-02-16T03:52:19;97952.59;;;15.84;54.71
51123;BME280;37162;41.724;13.346;2023-02-16T03:54:44;97953.44;;;15.85;54.83
51123;BME280;37162;41.724;13.346;2023-02-16T03:57:10;97948.47;;;15.82;54.89
51123;BME280;37162;41.724;13.346;2023-02-16T03:59:35;97952.59;;;15.84;54.66
51123;BME280;37162;41.724;13.346;2023-02-16T04:02:01;97950.13;;;15.83;54.60
51123;BME280;37162;41.724;13.346;2023-02-16T04:04:26;97956.31;;;15.83;54.41
51123;BME280;37162;41.724;13.346;2023-02-16T04:06:51;97959.00;;;15.83;54.54
51123;BME280;37162;41.724;13.346;2023-02-16T04:09:17;97944.91;;;15.75;54.44
51123;BME280;37162;41.724;13.346;2023-02-16T04:11:42;97957.34;;;15.82;54.43
51123;BME280;37162;41.724;13.346;2023-02-16T04:14:26;97959.19;;;15.82;54.59
51123;BME280;37162;41.724;13.346;2023-02-16T04:16:52;97957.56;;;15.81;54.73
51123;BME280;37162;41.724;13.346;2023-02-16T04:19:20;97955.03;;;15.79;54.61
51123;BME280;37162;41.724;13.346;2023-02-16T04:21:48;97956.06;;;15.78;54.54
51123;BME280;37162;41.724;13.346;2023-02-16T04:24:13;97949.69;;;15.79;54.61
51123;BME280;37162;41.724;13.346;2023-02-16T04:26:38;97950.94;;;15.77;54.82
51123;BME280;37162;41.724;13.346;2023-02-16T04:29:04;97956.06;;;15.78;54.95
51123;BME280;37162;41.724;13.346;2023-02-16T04:31:29;97948.41;;;15.75;55.06
51123;BME280;37162;41.724;13.346;2023-02-16T04:33:55;97952.56;;;15.78;54.97
51123;BME280;37162;41.724;13.346;2023-02-16T04:36:20;97958.75;;;15.78;55.00
51123;BME280;37162;41.724;13.346;2023-02-16T04:38:45;97945.31;;;15.72;54.92
51123;BME280;37162;41.724;13.346;2023-02-16T04:41:11;97955.25;;;15.78;54.88
51123;BME280;37162;41.724;13.346;2023-02-16T04:43:36;97950.72;;;15.78;54.80
51123;BME280;37162;41.724;13.346;2023-02-16T04:46:02;97957.09;;;15.77;54.73
51123;BME280;37162;41.724;13.346;2023-02-16T04:48:27;97951.75;;;15.77;54.65
51123;BME280;37162;41.724;13.346;2023-02-16T04:50:52;97958.75;;;15.78;54.80
51123;BME280;37162;41.724;13.346;2023-02-16T04:53:18;97952.56;;;15.78;54.77
51123;BME280;37162;41.724;13.346;2023-02-16T04:55:47;97956.91;;;15.79;54.96
51123;BME280;37162;41.724;13.346;2023-02-16T04:58:13;97943.84;;;15.69;55.01
51123;BME280;37162;41.724;13.346;2023-02-16T05:00:39;97958.13;;;15.76;55.27
51123;BME280;37162;41.724;13.346;2023-02-16T05:03:04;97958.13;;;15.76;55.19
51123;BME280;37162;41.724;13.346;2023-02-16T05:05:29;97960.63;;;15.78;54.97
51123;BME280;37162;41.724;13.346;2023-02-16T05:07:55;97958.50;;;15.73;54.84
51123;BME280;37162;41.724;13.346;2023-02-16T05:10:21;97965.75;;;15.79;54.85
51123;BME280;37162;41.724;13.346;2023-02-16T05:12:46;97973.81;;;15.79;54.57
51123;BME280;37162;41.724;13.346;2023-02-16T05:15:30;97973.81;;;15.79;54.60
51123;BME280;37162;41.724;13.346;2023-02-16T05:17:55;97974.84;;;15.78;54.58
51123;BME280;37162;41.724;13.346;2023-02-16T05:20:21;97969.03;;;15.75;54.64
51123;BME280;37162;41.724;13.346;2023-02-16T05:23:06;97975.66;;;15.79;54.64
51123;BME280;37162;41.724;13.346;2023-02-16T05:25:32;97969.03;;;15.75;54.55
51123;BME280;37162;41.724;13.346;2023-02-16T05:27:57;97972.16;;;15.78;54.62
51123;BME280;37162;41.724;13.346;2023-02-16T05:30:22;97982.88;;;15.78;54.59
51123;BME280;37162;41.724;13.346;2023-02-16T05:32:48;97962.59;;;15.69;54.54
51123;BME280;37162;41.724;13.346;2023-02-16T05:35:13;97964.91;;;15.72;54.70
51123;BME280;37162;41.724;13.346;2023-02-16T05:37:38;97980.41;;;15.77;54.62
51123;BME280;37162;41.724;13.346;2023-02-16T05:40:04;97983.91;;;15.77;54.57
51123;BME280;37162;41.724;13.346;2023-02-16T05:42:30;97984.94;;;15.76;54.70
51123;BME280;37162;41.724;13.346;2023-02-16T05:44:55;97988.44;;;15.77;54.45
51123;BME280;37162;41.724;13.346;2023-02-16T05:47:20;97990.47;;;15.75;54.56
51123;BME280;37162;41.724;13.346;2023-02-16T05:49:46;97994.78;;;15.76;54.47
51123;BME280;37162;41.724;13.346;2023-02-16T05:52:11;97988.00;;;15.73;54.46
51123;BME280;37162;41.724;13.346;2023-02-16T05:54:37;97995.81;;;15.75;54.63
51123;BME280;37162;41.724;13.346;2023-02-16T05:57:02;98002.22;;;15.74;54.62
51123;BME280;37162;41.724;13.346;2023-02-16T05:59:28;97998.50;;;15.75;54.63
51123;BME280;37162;41.724;13.346;2023-02-16T06:01:53;98001.38;;;15.73;54.77
51123;BME280;37162;41.724;13.346;2023-02-16T06:04:20;98006.75;;;15.73;54.65
51123;BME280;37162;41.724;13.346;2023-02-16T06:06:46;98011.06;;;15.74;54.60
51123;BME280;37162;41.724;13.346;2023-02-16T06:09:11;97998.72;;;15.73;54.64
51123;BME280;37162;41.724;13.346;2023-02-16T06:11:37;97993.88;;;15.62;54.53
51123;BME280;37162;41.724;13.346;2023-02-16T06:14:08;98016.63;;;15.73;54.77
51123;BME280;37162;41.724;13.346;2023-02-16T06:16:36;98015.81;;;15.72;55.02
51123;BME280;37162;41.724;13.346;2023-02-16T06:19:03;98024.84;;;15.71;54.89
51123;BME280;37162;41.724;13.346;2023-02-16T06:21:29;98025.88;;;15.70;55.01
51123;BME280;37162;41.724;13.346;2023-02-16T06:23:55;98033.91;;;15.70;55.00
51123;BME280;37162;41.724;13.346;2023-02-16T06:26:21;98028.50;;;15.64;55.32
51123;BME280;37162;41.724;13.346;2023-02-16T06:28:46;98048.34;;;15.69;55.18
51123;BME280;37162;41.724;13.346;2023-02-16T06:31:12;98047.50;;;15.69;55.24
51123;BME280;37162;41.724;13.346;2023-02-16T06:33:38;98042.16;;;15.69;55.07
51123;BME280;37162;41.724;13.346;2023-02-16T06:36:04;98049.16;;;15.70;55.27
51123;BME280;37162;41.724;13.346;2023-02-16T06:38:30;98045.88;;;15.68;55.33
51123;BME280;37162;41.724;13.346;2023-02-16T06:40:55;98040.06;;;15.64;55.14
51123;BME280;37162;41.724;13.346;2023-02-16T06:43:20;98056.16;;;15.71;55.12
51123;BME280;37162;41.724;13.346;2023-02-16T06:45:46;98050.41;;;15.67;55.00
51123;BME280;37162;41.724;13.346;2023-02-16T06:48:12;98048.53;;;15.68;55.23
51123;BME280;37162;41.724;13.346;2023-02-16T06:50:38;98058.03;;;15.70;55.06
51123;BME280;37162;41.724;13.346;2023-02-16T06:53:03;98054.16;;;15.73;54.96
51123;BME280;37162;41.724;13.346;2023-02-16T06:55:29;98058.47;;;15.74;54.95
51123;BME280;37162;41.724;13.346;2023-02-16T06:57:58;98053.94;;;15.74;54.97
51123;BME280;37162;41.724;13.346;2023-02-16T07:00:24;98055.59;;;15.75;54.90
51123;BME280;37162;41.724;13.346;2023-02-16T07:02:50;98050.44;;;15.74;54.95
51123;BME280;37162;41.724;13.346;2023-02-16T07:05:15;98059.75;;;15.78;54.75
51123;BME280;37162;41.724;13.346;2023-02-16T07:07:41;98061.41;;;15.79;54.78
51123;BME280;37162;41.724;13.346;2023-02-16T07:10:07;98065.09;;;15.78;54.94
51123;BME280;37162;41.724;13.346;2023-02-16T07:12:32;98061.41;;;15.79;55.08
51123;BME280;37162;41.724;13.346;2023-02-16T07:14:58;98068.41;;;15.80;55.03
51123;BME280;37162;41.724;13.346;2023-02-16T07:17:23;98068.41;;;15.80;54.74
51123;BME280;37162;41.724;13.346;2023-02-16T07:19:49;98071.09;;;15.80;54.60
51123;BME280;37162;41.724;13.346;2023-02-16T07:22:14;98087.16;;;15.80;54.64
51123;BME280;37162;41.724;13.346;2023-02-16T07:24:40;98068.81;;;15.77;54.65
51123;BME280;37162;41.724;13.346;2023-02-16T07:27:06;98073.78;;;15.80;54.71
51123;BME280;37162;41.724;13.346;2023-02-16T07:29:33;98083.66;;;15.79;54.61
51123;BME280;37162;41.724;13.346;2023-02-16T07:31:58;98071.28;;;15.78;54.65
51123;BME280;37162;41.724;13.346;2023-02-16T07:34:24;98076.66;;;15.78;54.69
51123;BME280;37162;41.724;13.346;2023-02-16T07:36:49;98087.38;;;15.78;54.59
51123;BME280;37162;41.724;13.346;2023-02-16T07:39:15;98077.84;;;15.76;54.60
51123;BME280;37162;41.724;13.346;2023-02-16T07:41:40;98082.22;;;15.77;54.73
51123;BME280;37162;41.724;13.346;2023-02-16T07:44:06;98086.75;;;15.76;54.77
51123;BME280;37162;41.724;13.346;2023-02-16T07:46:31;98090.25;;;15.77;54.79
51123;BME280;37162;41.724;13.346;2023-02-16T07:48:57;98071.41;;;15.70;54.63
51123;BME280;37162;41.724;13.346;2023-02-16T07:51:24;98077.44;;;15.72;54.64
51123;BME280;37162;41.724;13.346;2023-02-16T07:53:50;98080.53;;;15.76;54.68
51123;BME280;37162;41.724;13.346;2023-02-16T07:56:27;98085.88;;;15.76;54.81
51123;BME280;37162;41.724;13.346;2023-02-16T07:58:57;98078.88;;;15.75;54.79
51123;BME280;37162;41.724;13.346;2023-02-16T08:01:24;98081.75;;;15.73;54.89
51123;BME280;37162;41.724;13.346;2023-02-16T08:03:50;98082.59;;;15.74;54.94
51123;BME280;37162;41.724;13.346;2023-02-16T08:06:16;98077.44;;;15.72;54.78
51123;BME280;37162;41.724;13.346;2023-02-16T08:08:42;98076.59;;;15.72;54.91
51123;BME280;37162;41.724;13.346;2023-02-16T08:11:10;98077.44;;;15.72;54.90
51123;BME280;37162;41.724;13.346;2023-02-16T08:13:35;98082.78;;;15.72;55.10
51123;BME280;37162;41.724;13.346;2023-02-16T08:16:01;98076.59;;;15.72;55.11
51123;BME280;37162;41.724;13.346;2023-02-16T08:18:26;98076.59;;;15.72;54.90
51123;BME280;37162;41.724;13.346;2023-02-16T08:20:52;98070.41;;;15.71;55.05
51123;BME280;37162;41.724;13.346;2023-02-16T08:23:17;98069.41;;;15.72;55.08
51123;BME280;37162;41.724;13.346;2023-02-16T08:25:42;98075.59;;;15.73;55.02
51123;BME280;37162;41.724;13.346;2023-02-16T08:28:08;98079.09;;;15.73;55.25
51123;BME280;37162;41.724;13.346;2023-02-16T08:30:34;98080.72;;;15.74;55.51
51123;BME280;37162;41.724;13.346;2023-02-16T08:33:00;98057.78;;;15.65;55.88
51123;BME280;37162;41.724;13.346;2023-02-16T08:35:29;98076.41;;;15.73;55.81
51123;BME280;37162;41.724;13.346;2023-02-16T08:37:59;98078.25;;;15.73;55.86
51123;BME280;37162;41.724;13.346;2023-02-16T08:40:26;98080.13;;;15.72;55.86
51123;BME280;37162;41.724;13.346;2023-02-16T08:42:52;98073.28;;;15.70;55.97
51123;BME280;37162;41.724;13.346;2023-02-16T08:45:18;98073.19;;;15.63;55.92
51123;BME280;37162;41.724;13.346;2023-02-16T08:47:43;98078.63;;;15.70;55.81
51123;BME280;37162;41.724;13.346;2023-02-16T08:50:09;98066.84;;;15.64;55.49
51123;BME280;37162;41.724;13.346;2023-02-16T08:52:36;98078.63;;;15.70;55.68
51123;BME280;37162;41.724;13.346;2023-02-16T08:55:01;98093.09;;;15.75;55.55
51123;BME280;37162;41.724;13.346;2023-02-16T08:57:27;98098.28;;;15.77;55.59
51123;BME280;37162;41.724;13.346;2023-02-16T08:59:52;98100.16;;;15.76;55.40
51123;BME280;37162;41.724;13.346;2023-02-16T09:02:38;98107.31;;;15.76;55.20
51123;BME280;37162;41.724;13.346;2023-02-16T09:05:03;98091.56;;;15.66;55.28
51123;BME280;37162;41.724;13.346;2023-02-16T09:07:29;98107.53;;;15.74;55.15
51123;BME280;37162;41.724;13.346;2023-02-16T09:09:59;98111.84;;;15.75;55.30
51123;BME280;37162;41.724;13.346;2023-02-16T09:12:25;98115.56;;;15.74;55.38
51123;BME280;37162;41.724;13.346;2023-02-16T09:14:52;98107.53;;;15.74;55.25
51123;BME280;37162;41.724;13.346;2023-02-16T09:17:17;98114.75;;;15.74;55.45
51123;BME280;37162;41.724;13.346;2023-02-16T09:19:45;98114.94;;;15.72;55.48
51123;BME280;37162;41.724;13.346;2023-02-16T09:22:10;98116.59;;;15.73;55.35
51123;BME280;37162;41.724;13.346;2023-02-16T09:24:36;98122.78;;;15.74;55.57
51123;BME280;37162;41.724;13.346;2023-02-16T09:27:01;98114.94;;;15.72;55.44
51123;BME280;37162;41.724;13.346;2023-02-16T09:29:28;98113.25;;;15.71;55.45
51123;BME280;37162;41.724;13.346;2023-02-16T09:31:53;98103.78;;;15.69;55.38
51123;BME280;37162;41.724;13.346;2023-02-16T09:34:21;98119.16;;;15.81;55.39
51123;BME280;37162;41.724;13.346;2023-02-16T09:36:48;98117.31;;;15.82;55.25
51123;BME280;37162;41.724;13.346;2023-02-16T09:39:14;98128.66;;;15.84;55.02
51123;BME280;37162;41.724;13.346;2023-02-16T09:47:23;98133.22;;;15.90;54.34
51123;BME280;37162;41.724;13.346;2023-02-16T09:49:50;98126.66;;;15.93;54.65
51123;BME280;37162;41.724;13.346;2023-02-16T09:54:59;98125.72;;;16.00;54.28
51123;BME280;37162;41.724;13.346;2023-02-16T10:00:47;98127.63;;;16.06;54.38
51123;BME280;37162;41.724;13.346;2023-02-16T10:09:02;98137.88;;;16.24;54.41
51123;BME280;37162;41.724;13.346;2023-02-16T10:12:38;98132.09;;;16.27;54.40
51123;BME280;37162;41.724;13.346;2023-02-16T10:14:44;98121.38;;;16.27;54.45
51123;BME280;37162;41.724;13.346;2023-02-16T10:17:37;98129.94;;;16.38;54.42
51123;BME280;37162;41.724;13.346;2023-02-16T10:30:42;98124.22;;;16.47;54.40
51123;BME280;37162;41.724;13.346;2023-02-16T10:35:51;98122.59;;;16.53;54.25
51123;BME280;37162;41.724;13.346;2023-02-16T10:41:00;98116.66;;;16.64;54.04
51123;BME280;37162;41.724;13.346;2023-02-16T10:45:57;98113.66;;;16.74;54.22
51123;BME280;37162;41.724;13.346;2023-02-16T10:48:24;98119.25;;;16.79;54.18
51123;BME280;37162;41.724;13.346;2023-02-16T10:51:06;98114.13;;;16.84;54.28
51123;BME280;37162;41.724;13.346;2023-02-16T10:59:05;98109.63;;;16.98;54.11
51123;BME280;37162;41.724;13.346;2023-02-16T11:01:37;98104.69;;;17.01;54.03
51123;BME280;37162;41.724;13.346;2023-02-16T11:04:03;98104.31;;;17.04;53.94
51123;BME280;37162;41.724;13.346;2023-02-16T11:06:29;98104.94;;;17.06;53.98
51123;BME280;37162;41.724;13.346;2023-02-16T11:08:59;98099.16;;;17.09;53.88
51123;BME280;37162;41.724;13.346;2023-02-16T11:11:27;98099.78;;;17.11;53.57
51123;BME280;37162;41.724;13.346;2023-02-16T11:13:59;98081.41;;;17.08;53.84
51123;BME280;37162;41.724;13.346;2023-02-16T11:16:25;98091.13;;;17.16;53.39
51123;BME280;37162;41.724;13.346;2023-02-16T11:21:45;98081.44;;;17.22;53.52
51123;BME280;37162;41.724;13.346;2023-02-16T11:24:23;98087.44;;;17.24;53.23
51123;BME280;37162;41.724;13.346;2023-02-16T11:27:03;98089.91;;;17.25;53.26
51123;BME280;37162;41.724;13.346;2023-02-16T11:29:29;98078.13;;;17.26;53.43
51123;BME280;37162;41.724;13.346;2023-02-16T11:31:56;98081.47;;;17.28;53.32
51123;BME280;37162;41.724;13.346;2023-02-16T11:34:43;98071.53;;;17.29;52.89
51123;BME280;37162;41.724;13.346;2023-02-16T11:37:26;98068.03;;;17.28;52.87
51123;BME280;37162;41.724;13.346;2023-02-16T11:39:55;98068.44;;;17.25;52.69
51123;BME280;37162;41.724;13.346;2023-02-16T11:42:37;98062.22;;;17.25;52.47
51123;BME280;37162;41.724;13.346;2023-02-16T11:45:29;98064.91;;;17.25;52.57
51123;BME280;37162;41.724;13.346;2023-02-16T11:47:59;98065.94;;;17.24;52.94
51123;BME280;37162;41.724;13.346;2023-02-16T11:50:36;98058.94;;;17.23;52.90
51123;BME280;37162;41.724;13.346;2023-02-16T11:55:35;98059.31;;;17.20;52.84
51123;BME280;37162;41.724;13.346;2023-02-16T11:58:23;98054.16;;;17.18;52.85
51123;BME280;37162;41.724;13.346;2023-02-16T12:11:27;98045.91;;;17.13;53.03
51123;BME280;37162;41.724;13.346;2023-02-16T12:19:44;98036.16;;;17.05;52.75
51123;BME280;37162;41.724;13.346;2023-02-16T12:24:55;98021.69;;;17.00;52.69
51123;BME280;37162;41.724;13.346;2023-02-16T12:27:35;98015.06;;;16.96;52.76
51123;BME280;37162;41.724;13.346;2023-02-16T12:35:47;98010.72;;;16.95;52.73
51123;BME280;37162;41.724;13.346;2023-02-16T12:43:56;98006.78;;;16.91;52.85
51123;BME280;37162;41.724;13.346;2023-02-16T12:46:27;98001.84;;;16.94;53.01
51123;BME280;37162;41.724;13.346;2023-02-16T12:49:22;97996.66;;;16.93;52.97
51123;BME280;37162;41.724;13.346;2023-02-16T12:51:56;97996.66;;;16.93;52.97
51123;BME280;37162;41.724;13.346;2023-02-16T12:57:07;97985.53;;;16.89;53.37
51123;BME280;37162;41.724;13.346;2023-02-16T12:59:40;97985.09;;;16.85;53.24
51123;BME280;37162;41.724;13.346;2023-02-16T13:02:26;97988.19;;;16.82;53.49
51123;BME280;37162;41.724;13.346;2023-02-16T13:05:05;97985.69;;;16.81;53.67
51123;BME280;37162;41.724;13.346;2023-02-16T13:07:44;97981.38;;;16.80;53.94
51123;BME280;37162;41.724;13.346;2023-02-16T13:10:22;97986.09;;;16.78;54.09
51123;BME280;37162;41.724;13.346;2023-02-16T13:13:00;97990.84;;;16.76;54.45
51123;BME280;37162;41.724;13.346;2023-02-16T13:15:38;97975.50;;;16.70;54.41
51123;BME280;37162;41.724;13.346;2023-02-16T13:18:30;97981.53;;;16.72;54.96
51123;BME280;37162;41.724;13.346;2023-02-16T13:32:40;97968.88;;;16.59;55.31
51123;BME280;37162;41.724;13.346;2023-02-16T13:43:41;97959.34;;;16.50;55.79
51123;BME280;37162;41.724;13.346;2023-02-16T13:46:17;97946.75;;;16.44;55.88
51123;BME280;37162;41.724;13.346;2023-02-16T13:48:48;97959.34;;;16.50;56.01
51123;BME280;37162;41.724;13.346;2023-02-16T13:51:19;97960.38;;;16.49;56.11
51123;BME280;37162;41.724;13.346;2023-02-16T13:54:00;97961.59;;;16.46;56.10
51123;BME280;37162;41.724;13.346;2023-02-16T14:01:47;97951.28;;;16.43;55.89
51123;BME280;37162;41.724;13.346;2023-02-16T14:09:46;97951.66;;;16.40;55.55
51123;BME280;37162;41.724;13.346;2023-02-16T14:12:14;97950.63;;;16.41;55.44
51123;BME280;37162;41.724;13.346;2023-02-16T14:20:46;97952.06;;;16.37;55.55
51123;BME280;37162;41.724;13.346;2023-02-16T14:22:51;97956.81;;;16.35;55.55
51123;BME280;37162;41.724;13.346;2023-02-16T14:33:14;97945.47;;;16.33;55.86
51123;BME280;37162;41.724;13.346;2023-02-16T14:36:05;97945.47;;;16.33;55.67
51123;BME280;37162;41.724;13.346;2023-02-16T14:38:33;97938.00;;;16.28;55.92
51123;BME280;37162;41.724;13.346;2023-02-16T14:41:05;97927.91;;;16.30;55.95
51123;BME280;37162;41.724;13.346;2023-02-16T15:00:47;97944.59;;;16.32;56.75
51123;BME280;37162;41.724;13.346;2023-02-16T15:03:18;97935.75;;;16.32;56.90
51123;BME280;37162;41.724;13.346;2023-02-16T15:08:21;97943.78;;;16.32;56.97
51123;BME280;37162;41.724;13.346;2023-02-16T15:10:51;97929.75;;;16.23;56.79
51123;BME280;37162;41.724;13.346;2023-02-16T15:13:22;97928.28;;;16.27;56.80
51123;BME280;37162;41.724;13.346;2023-02-16T15:15:51;97931.41;;;16.31;56.93
51123;BME280;37162;41.724;13.346;2023-02-16T15:18:25;97944.00;;;16.30;56.82
51123;BME280;37162;41.724;13.346;2023-02-16T15:20:53;97939.44;;;16.31;57.01
51123;BME280;37162;41.724;13.346;2023-02-16T15:26:16;97935.13;;;16.30;56.71
51123;BME280;37162;41.724;13.346;2023-02-16T15:28:53;97939.88;;;16.28;57.03
51123;BME280;37162;41.724;13.346;2023-02-16T15:31:29;97942.34;;;16.29;57.08
51123;BME280;37162;41.724;13.346;2023-02-16T15:33:59;97938.84;;;16.29;56.90
51123;BME280;37162;41.724;13.346;2023-02-16T15:36:39;97936.97;;;16.29;57.08
51123;BME280;37162;41.724;13.346;2023-02-16T15:39:14;97934.31;;;16.29;57.01
51123;BME280;37162;41.724;13.346;2023-02-16T15:41:45;97932.66;;;16.28;56.90
51123;BME280;37162;41.724;13.346;2023-02-16T15:44:34;97935.34;;;16.28;57.49
51123;BME280;37162;41.724;13.346;2023-02-16T15:47:13;97937.19;;;16.28;56.96
51123;BME280;37162;41.724;13.346;2023-02-16T15:49:40;97935.34;;;16.28;57.10
51123;BME280;37162;41.724;13.346;2023-02-16T15:52:12;97930.97;;;16.27;57.03
51123;BME280;37162;41.724;13.346;2023-02-16T15:54:39;97929.97;;;16.28;57.01
51123;BME280;37162;41.724;13.346;2023-02-16T15:57:18;97932.44;;;16.30;57.28
51123;BME280;37162;41.724;13.346;2023-02-16T15:59:48;97936.97;;;16.29;57.15
51123;BME280;37162;41.724;13.346;2023-02-16T16:02:15;97930.78;;;16.29;56.97
51123;BME280;37162;41.724;13.346;2023-02-16T16:04:45;97939.66;;;16.29;57.05
51123;BME280;37162;41.724;13.346;2023-02-16T16:07:14;97929.97;;;16.28;56.91
51123;BME280;37162;41.724;13.346;2023-02-16T16:09:41;97935.34;;;16.28;56.84
51123;BME280;37162;41.724;13.346;2023-02-16T16:12:11;97935.34;;;16.28;56.83